Terminal Aerodrome Forecast
Issued by NWS Medford, OR

Home | Current Version | Previous Version | Text Only | Print | Product List | Glossary On
Versions: 1 2 3 4 5 6 7 8 9 10 11 12 13 14
000
FTUS46 KMFR 310500 RRA
TAFMFR
TAF
KMFR 310553Z 3106/0106 VRB03KT P6SM SCT100 SCT250
     FM312200 33011KT P6SM VCTS BKN100CB BKN250
     FM010400 VRB05KT P6SM SCT100 BKN250=

USA.gov is the U.S. government's official web portal to all federal, state and local government web resources and services.